Time;durP1;ratioP1;P1;durP2;ratioP2;P2;SDS_P1;SDS_P2;PMS_P1;PMS_P2;Temp;Humidity;BMP_temperature;BMP_pressure;BME280_temperature;BME280_humidity;BME280_pressure;Samples;Min_cycle;Max_cycle;Signal;HPM_P1;HPM_P2
2023/08/15 00:00:30;;;;;;;19.15;12.15;;;19.50;99.90;;;;;;4895423;29;20275;-63
2023/08/15 00:02:56;;;;;;;15.52;10.43;;;19.50;99.90;;;;;;4893131;29;20200;-64
2023/08/15 00:05:23;;;;;;;21.17;12.50;;;19.40;99.90;;;;;;4883784;29;20626;-64
2023/08/15 00:08:01;;;;;;;20.05;12.23;;;19.40;99.90;;;;;;4896218;29;20205;-64
2023/08/15 00:10:27;;;;;;;20.08;12.00;;;19.40;99.90;;;;;;4895037;29;20213;-64
2023/08/15 00:12:53;;;;;;;20.33;12.23;;;19.40;99.90;;;;;;4890355;29;20657;-64
2023/08/15 00:15:19;;;;;;;20.83;14.07;;;19.40;99.90;;;;;;4896399;29;20669;-63
2023/08/15 00:17:45;;;;;;;20.10;14.85;;;19.30;99.90;;;;;;4896372;29;20204;-64
2023/08/15 00:20:11;;;;;;;23.08;14.48;;;19.30;99.90;;;;;;4896505;29;20220;-64
2023/08/15 00:22:37;;;;;;;23.55;15.18;;;19.30;99.90;;;;;;4889423;29;20199;-64
2023/08/15 00:25:03;;;;;;;26.85;15.23;;;19.30;99.90;;;;;;4894624;29;20232;-64
2023/08/15 00:27:29;;;;;;;22.85;15.73;;;19.20;99.90;;;;;;4878780;29;20193;-64
2023/08/15 00:29:55;;;;;;;23.80;14.95;;;19.30;99.90;;;;;;4893897;29;20212;-65
2023/08/15 00:32:21;;;;;;;21.38;14.10;;;19.20;99.90;;;;;;4892441;29;20303;-65
2023/08/15 00:34:46;;;;;;;19.40;13.60;;;19.20;99.90;;;;;;4912409;29;20303;-65
2023/08/15 00:37:12;;;;;;;19.13;12.90;;;19.20;99.90;;;;;;4895414;29;20192;-65
2023/08/15 00:39:40;;;;;;;23.85;13.05;;;19.20;99.90;;;;;;4895269;29;20193;-65
2023/08/15 00:42:06;;;;;;;20.33;13.25;;;19.20;99.90;;;;;;4889495;29;20192;-64
2023/08/15 00:44:32;;;;;;;18.50;12.90;;;19.20;99.90;;;;;;4897478;29;20194;-65
2023/08/15 00:46:58;;;;;;;21.52;13.85;;;19.30;99.90;;;;;;4888568;29;20606;-63
2023/08/15 00:49:23;;;;;;;18.33;12.40;;;19.30;99.90;;;;;;4898704;29;20193;-64
2023/08/15 00:51:49;;;;;;;25.23;12.18;;;19.30;99.90;;;;;;4897198;29;20295;-64
2023/08/15 00:54:16;;;;;;;19.42;13.05;;;19.30;99.90;;;;;;4913920;29;20228;-65
2023/08/15 00:56:42;;;;;;;23.17;14.40;;;19.30;99.90;;;;;;4892540;29;20196;-64
2023/08/15 00:59:08;;;;;;;21.40;13.43;;;19.40;99.90;;;;;;4892509;29;20560;-64
2023/08/15 01:01:36;;;;;;;19.98;12.75;;;19.40;99.90;;;;;;4890084;29;20193;-64
2023/08/15 01:04:03;;;;;;;23.10;13.43;;;19.40;99.90;;;;;;4890423;29;20192;-63
2023/08/15 01:06:29;;;;;;;21.58;13.07;;;19.40;99.90;;;;;;4891870;29;20200;-63
2023/08/15 01:08:55;;;;;;;24.15;13.63;;;19.40;99.90;;;;;;4899059;29;21057;-63
2023/08/15 01:11:22;;;;;;;25.38;13.10;;;19.40;99.90;;;;;;4893955;29;20348;-62
2023/08/15 01:14:02;;;;;;;26.35;14.05;;;19.40;99.90;;;;;;4898701;29;20216;-63
2023/08/15 01:16:37;;;;;;;23.73;14.02;;;19.40;99.90;;;;;;4909348;29;20185;-62
2023/08/15 01:19:38;;;;;;;23.02;14.70;;;19.40;99.90;;;;;;4896765;29;20192;-63
2023/08/15 01:22:14;;;;;;;22.90;13.48;;;19.40;99.90;;;;;;4885450;29;20527;-63
2023/08/15 01:24:40;;;;;;;21.77;13.48;;;19.40;99.90;;;;;;4895596;29;20240;-63
2023/08/15 01:27:06;;;;;;;30.13;13.27;;;19.40;99.90;;;;;;4896671;29;20195;-64
2023/08/15 01:29:32;;;;;;;22.33;11.65;;;19.40;99.90;;;;;;4884626;29;20658;-64
2023/08/15 01:32:26;;;;;;;18.80;12.38;;;19.40;99.90;;;;;;4879561;29;20195;-63
2023/08/15 01:35:16;;;;;;;19.20;11.82;;;19.30;99.90;;;;;;4887177;29;20213;-63
2023/08/15 01:37:54;;;;;;;24.15;12.00;;;19.30;99.90;;;;;;4885438;29;20208;-63
2023/08/15 01:40:22;;;;;;;19.30;11.55;;;19.30;99.90;;;;;;4909975;29;20188;-63
2023/08/15 01:42:50;;;;;;;17.60;11.00;;;19.20;99.90;;;;;;4891748;29;20244;-63
2023/08/15 01:45:17;;;;;;;23.52;11.25;;;19.20;99.90;;;;;;4897123;29;20228;-63
2023/08/15 01:47:43;;;;;;;15.23;10.88;;;19.20;99.90;;;;;;4897333;29;20188;-63
2023/08/15 01:50:09;;;;;;;20.35;11.00;;;19.20;99.90;;;;;;4898713;29;20197;-65
2023/08/15 01:52:35;;;;;;;17.92;11.50;;;19.20;99.90;;;;;;4890333;29;20638;-63
2023/08/15 01:55:01;;;;;;;22.77;11.93;;;19.20;99.90;;;;;;4890564;29;20650;-65
2023/08/15 01:57:27;;;;;;;19.88;10.90;;;19.10;99.90;;;;;;4896248;29;20189;-63
2023/08/15 01:59:53;;;;;;;19.85;11.52;;;19.10;99.90;;;;;;4897786;29;20668;-63
2023/08/15 02:02:19;;;;;;;20.85;12.80;;;19.10;99.90;;;;;;4905524;29;20200;-63
2023/08/15 02:04:45;;;;;;;20.95;12.32;;;19.10;99.90;;;;;;4912168;29;20645;-63
2023/08/15 02:07:11;;;;;;;20.63;12.70;;;19.00;99.90;;;;;;4875566;29;20236;-63
2023/08/15 02:09:37;;;;;;;27.48;12.90;;;19.00;99.90;;;;;;4887679;29;20200;-63
2023/08/15 02:12:03;;;;;;;20.33;12.18;;;19.00;99.90;;;;;;4884022;29;20194;-62
2023/08/15 02:14:29;;;;;;;21.63;12.65;;;19.00;99.90;;;;;;4887835;29;20269;-63
2023/08/15 02:16:55;;;;;;;21.02;12.63;;;19.00;99.90;;;;;;4892155;29;20341;-63
2023/08/15 02:19:21;;;;;;;21.67;12.75;;;19.00;99.90;;;;;;4896126;29;20202;-63
2023/08/15 02:21:47;;;;;;;18.67;12.55;;;18.90;99.90;;;;;;4887685;29;20195;-63
2023/08/15 02:24:13;;;;;;;19.88;13.05;;;19.00;99.90;;;;;;4891755;29;20185;-63
2023/08/15 02:26:39;;;;;;;24.95;12.48;;;19.00;99.90;;;;;;4860651;29;20241;-63
2023/08/15 02:29:05;;;;;;;21.38;12.05;;;19.00;99.90;;;;;;4885243;29;20650;-63
2023/08/15 02:31:31;;;;;;;19.10;11.95;;;19.00;99.90;;;;;;4907850;29;20237;-64
2023/08/15 02:33:57;;;;;;;18.77;10.93;;;19.00;99.90;;;;;;4888983;29;20280;-64
2023/08/15 02:36:23;;;;;;;19.88;12.18;;;19.00;99.90;;;;;;4908236;29;20567;-64
2023/08/15 02:38:49;;;;;;;18.30;11.30;;;19.00;99.90;;;;;;4896429;29;20224;-63
2023/08/15 02:41:15;;;;;;;16.60;10.98;;;19.00;99.90;;;;;;4896369;29;20260;-65
2023/08/15 02:43:41;;;;;;;20.85;11.07;;;19.00;99.90;;;;;;4888422;29;20192;-65
2023/08/15 02:46:07;;;;;;;20.08;11.10;;;19.00;99.90;;;;;;4895792;29;20215;-65
2023/08/15 02:48:33;;;;;;;19.17;11.13;;;19.00;99.90;;;;;;4896645;29;20197;-64
2023/08/15 02:50:59;;;;;;;23.35;12.10;;;19.00;99.90;;;;;;4896869;29;20574;-65
2023/08/15 02:53:25;;;;;;;19.75;11.50;;;19.00;99.90;;;;;;4894473;29;20192;-64
2023/08/15 02:55:51;;;;;;;19.42;11.70;;;19.00;99.90;;;;;;4896389;29;20713;-65
2023/08/15 02:58:17;;;;;;;19.15;11.07;;;18.90;99.90;;;;;;4887963;29;20253;-65
2023/08/15 03:00:43;;;;;;;21.38;11.38;;;18.90;99.90;;;;;;4897519;29;20650;-65
2023/08/15 03:03:09;;;;;;;18.25;10.27;;;18.90;99.90;;;;;;4895398;29;20232;-64
2023/08/15 03:05:39;;;;;;;21.13;10.25;;;19.00;99.90;;;;;;4897386;29;20287;-64
2023/08/15 03:08:05;;;;;;;15.63;10.60;;;19.00;99.90;;;;;;4896900;29;20192;-64
2023/08/15 03:10:36;;;;;;;22.65;11.15;;;19.00;99.90;;;;;;4897157;29;20661;-65
2023/08/15 03:13:03;;;;;;;21.15;11.10;;;19.00;99.90;;;;;;4892444;29;20610;-64
2023/08/15 03:15:30;;;;;;;21.25;10.70;;;19.00;99.90;;;;;;4894590;29;20315;-64
2023/08/15 03:17:57;;;;;;;16.83;10.07;;;19.00;99.90;;;;;;4892532;29;20275;-65
2023/08/15 03:20:23;;;;;;;20.60;11.32;;;19.00;99.90;;;;;;4880484;29;20240;-63
2023/08/15 03:22:49;;;;;;;19.00;11.70;;;19.10;99.90;;;;;;4895691;29;20617;-63
2023/08/15 03:25:16;;;;;;;17.13;10.88;;;19.10;99.90;;;;;;4895885;29;20252;-64
2023/08/15 03:27:42;;;;;;;17.45;10.93;;;19.20;99.90;;;;;;4892640;29;20197;-64
2023/08/15 03:30:09;;;;;;;19.70;11.32;;;19.20;99.90;;;;;;4861741;29;20802;-64
2023/08/15 03:32:36;;;;;;;20.10;11.98;;;19.20;99.90;;;;;;4879833;29;20197;-64
2023/08/15 03:35:03;;;;;;;19.77;12.25;;;19.30;99.90;;;;;;4880511;29;20225;-64
2023/08/15 03:37:29;;;;;;;23.50;12.70;;;19.30;99.90;;;;;;4894400;29;20197;-64
2023/08/15 03:39:55;;;;;;;19.13;12.63;;;19.30;99.90;;;;;;4895978;29;20328;-64
2023/08/15 03:42:21;;;;;;;18.58;12.68;;;19.40;99.90;;;;;;4895271;29;20188;-64
2023/08/15 03:44:46;;;;;;;21.38;11.98;;;19.40;99.90;;;;;;4895773;29;20197;-63
2023/08/15 03:47:14;;;;;;;20.10;12.65;;;19.40;99.90;;;;;;4894333;29;20193;-64
2023/08/15 03:49:44;;;;;;;21.23;11.75;;;19.40;99.90;;;;;;4863278;29;20631;-63
2023/08/15 03:52:10;;;;;;;25.60;14.15;;;19.40;99.90;;;;;;4886542;29;20193;-64
2023/08/15 03:54:36;;;;;;;24.90;13.07;;;19.40;99.90;;;;;;4886780;29;20220;-64
2023/08/15 03:57:01;;;;;;;22.60;13.25;;;19.40;99.90;;;;;;4879358;29;20200;-65
2023/08/15 03:59:27;;;;;;;22.35;13.10;;;19.40;99.90;;;;;;4911288;29;20192;-64
2023/08/15 04:01:58;;;;;;;23.90;13.65;;;19.40;99.90;;;;;;4893615;29;20207;-64
2023/08/15 04:04:24;;;;;;;24.50;13.70;;;19.40;99.90;;;;;;4880396;29;20276;-64
2023/08/15 04:06:49;;;;;;;23.83;14.77;;;19.40;99.90;;;;;;4891459;29;20205;-64
2023/08/15 04:09:16;;;;;;;25.38;14.60;;;19.40;99.90;;;;;;4900709;29;20244;-64
2023/08/15 04:11:41;;;;;;;25.65;15.00;;;19.40;99.90;;;;;;4899195;29;20662;-64
2023/08/15 04:14:07;;;;;;;24.98;14.38;;;19.30;99.90;;;;;;4893069;29;20232;-63
2023/08/15 04:16:33;;;;;;;29.95;15.10;;;19.30;99.90;;;;;;4896667;29;20661;-64
2023/08/15 04:19:01;;;;;;;30.38;15.27;;;19.30;99.90;;;;;;4916385;29;20211;-64
2023/08/15 04:21:27;;;;;;;23.75;15.07;;;19.30;99.90;;;;;;4901805;29;20192;-63
2023/08/15 04:23:53;;;;;;;26.50;15.13;;;19.30;99.90;;;;;;4898323;29;20195;-64
2023/08/15 04:26:19;;;;;;;22.70;15.18;;;19.30;99.90;;;;;;4916356;29;20613;-64
2023/08/15 04:28:46;;;;;;;23.63;15.57;;;19.30;99.90;;;;;;4885578;29;20197;-64
2023/08/15 04:31:12;;;;;;;23.70;15.45;;;19.30;99.90;;;;;;4875513;29;21506;-65
2023/08/15 04:33:38;;;;;;;21.65;15.25;;;19.30;99.90;;;;;;4890595;29;20640;-64
2023/08/15 04:36:04;;;;;;;24.73;15.05;;;19.30;99.90;;;;;;4897476;29;20201;-65
2023/08/15 04:38:31;;;;;;;22.33;14.77;;;19.30;99.90;;;;;;4898460;29;20192;-63
2023/08/15 04:40:57;;;;;;;22.02;13.93;;;19.30;99.90;;;;;;4900600;29;21237;-64
2023/08/15 04:43:23;;;;;;;20.83;14.52;;;19.30;99.90;;;;;;4895609;29;20216;-64
2023/08/15 04:45:49;;;;;;;25.50;15.13;;;19.30;99.90;;;;;;4901238;29;20204;-63
2023/08/15 04:48:15;;;;;;;25.60;13.98;;;19.30;99.90;;;;;;4898289;29;20704;-65
2023/08/15 04:50:41;;;;;;;20.77;14.70;;;19.30;99.90;;;;;;4884243;29;20579;-63
2023/08/15 04:53:07;;;;;;;20.83;13.70;;;19.30;99.90;;;;;;4900905;29;20223;-64
2023/08/15 04:55:34;;;;;;;24.80;14.70;;;19.30;99.90;;;;;;4899537;29;20976;-64
2023/08/15 04:58:00;;;;;;;21.35;13.82;;;19.30;99.90;;;;;;4898396;29;20188;-63
2023/08/15 05:00:26;;;;;;;18.65;13.48;;;19.30;99.90;;;;;;4899260;29;20190;-63
2023/08/15 05:02:52;;;;;;;28.00;14.27;;;19.40;99.90;;;;;;4892855;29;20190;-64
2023/08/15 05:05:18;;;;;;;22.48;14.23;;;19.40;99.90;;;;;;4900446;29;20197;-63
2023/08/15 05:07:44;;;;;;;24.02;13.40;;;19.40;99.90;;;;;;4893376;29;20276;-62
2023/08/15 05:10:10;;;;;;;20.02;13.70;;;19.40;99.90;;;;;;4900081;29;20313;-62
2023/08/15 05:12:39;;;;;;;22.58;13.02;;;19.30;99.90;;;;;;4899822;29;20300;-62
2023/08/15 05:15:07;;;;;;;21.15;12.70;;;19.30;99.90;;;;;;4900973;29;20299;-63
2023/08/15 05:17:35;;;;;;;19.25;12.13;;;19.30;99.90;;;;;;4899993;29;20197;-63
2023/08/15 05:20:03;;;;;;;20.88;10.98;;;19.30;99.90;;;;;;4879971;29;20250;-60
2023/08/15 05:22:32;;;;;;;17.70;11.05;;;19.30;99.90;;;;;;4897308;29;20209;-65
2023/08/15 05:24:58;;;;;;;18.85;10.82;;;19.30;99.90;;;;;;4898491;29;20197;-64
2023/08/15 05:27:25;;;;;;;15.73;10.70;;;19.30;99.90;;;;;;4895930;29;20232;-60
2023/08/15 05:29:51;;;;;;;21.67;10.93;;;19.30;99.90;;;;;;4897885;29;20600;-64
2023/08/15 05:32:17;;;;;;;17.55;11.55;;;19.40;99.90;;;;;;4896585;29;20232;-61
2023/08/15 05:34:43;;;;;;;16.33;11.63;;;19.40;99.90;;;;;;4888645;29;20220;-60
2023/08/15 05:37:09;;;;;;;22.85;11.40;;;19.40;99.90;;;;;;4893913;29;20192;-61
2023/08/15 05:39:35;;;;;;;22.42;11.30;;;19.40;99.90;;;;;;4887524;29;20689;-61
2023/08/15 05:42:01;;;;;;;17.55;11.30;;;19.40;99.90;;;;;;4898014;29;20216;-62
2023/08/15 05:44:26;;;;;;;18.77;10.48;;;19.50;99.90;;;;;;4898717;29;20193;-61
2023/08/15 05:46:52;;;;;;;19.58;10.30;;;19.50;99.90;;;;;;4898098;29;20557;-62
2023/08/15 05:49:18;;;;;;;18.90;10.60;;;19.50;99.90;;;;;;4882287;29;20207;-63
2023/08/15 05:51:44;;;;;;;21.52;9.60;;;19.50;99.90;;;;;;4898988;29;20197;-63
2023/08/15 05:54:10;;;;;;;13.95;9.63;;;19.50;99.90;;;;;;4895781;29;20784;-63
2023/08/15 05:56:36;;;;;;;14.90;9.98;;;19.50;99.90;;;;;;4896411;29;20573;-62
2023/08/15 05:59:02;;;;;;;16.33;9.35;;;19.50;99.90;;;;;;4894216;29;20203;-63
2023/08/15 06:01:28;;;;;;;22.60;10.35;;;19.50;99.90;;;;;;4883237;29;20185;-63
2023/08/15 06:03:54;;;;;;;18.85;10.07;;;19.60;99.90;;;;;;4896076;29;20247;-64
2023/08/15 06:06:21;;;;;;;16.40;10.07;;;19.50;99.90;;;;;;4897077;29;20236;-64
2023/08/15 06:08:48;;;;;;;17.85;10.48;;;19.50;99.90;;;;;;4891838;29;20223;-64
2023/08/15 06:11:15;;;;;;;14.90;9.73;;;19.50;99.90;;;;;;4890765;29;20669;-65
2023/08/15 06:13:40;;;;;;;17.13;9.25;;;19.50;99.90;;;;;;4891940;29;20188;-64
2023/08/15 06:16:06;;;;;;;20.27;9.38;;;19.40;99.90;;;;;;4897515;29;20189;-64
2023/08/15 06:18:33;;;;;;;18.73;9.32;;;19.40;99.90;;;;;;4886741;29;20180;-64
2023/08/15 06:20:59;;;;;;;19.80;9.85;;;19.30;99.90;;;;;;4894668;29;20204;-64
2023/08/15 06:23:24;;;;;;;17.10;9.25;;;19.30;99.90;;;;;;4896701;29;20192;-64
2023/08/15 06:25:50;;;;;;;13.32;8.50;;;19.30;99.90;;;;;;4889434;29;20200;-65
2023/08/15 06:28:18;;;;;;;17.17;8.55;;;19.40;99.90;;;;;;4884794;29;20264;-65
2023/08/15 06:30:44;;;;;;;16.05;8.32;;;19.40;99.90;;;;;;4897901;29;20560;-65
2023/08/15 06:33:10;;;;;;;22.55;8.93;;;19.40;99.90;;;;;;4896492;29;20276;-64
2023/08/15 06:35:36;;;;;;;17.33;8.50;;;19.40;99.90;;;;;;4892196;29;20216;-64
2023/08/15 06:38:01;;;;;;;14.95;7.93;;;19.50;99.90;;;;;;4895527;29;20200;-64
2023/08/15 06:40:27;;;;;;;15.82;7.80;;;19.50;99.90;;;;;;4878820;29;20204;-64
2023/08/15 06:42:53;;;;;;;13.68;7.28;;;19.60;99.90;;;;;;4902516;29;20192;-64
2023/08/15 06:45:19;;;;;;;18.20;7.60;;;19.60;99.90;;;;;;4895294;29;20293;-64
2023/08/15 06:47:46;;;;;;;20.13;7.40;;;19.60;99.90;;;;;;4896322;29;20193;-64
2023/08/15 06:50:11;;;;;;;11.93;7.40;;;19.60;99.90;;;;;;4897886;29;20661;-64
2023/08/15 06:52:38;;;;;;;17.55;7.97;;;19.60;99.90;;;;;;4895934;29;20194;-64
2023/08/15 06:55:04;;;;;;;18.80;7.72;;;19.60;99.90;;;;;;4889532;29;20229;-64
2023/08/15 06:57:33;;;;;;;20.02;8.18;;;19.60;99.90;;;;;;4894633;29;20196;-65
2023/08/15 07:00:00;;;;;;;19.05;8.70;;;19.60;99.90;;;;;;4890456;29;20193;-65
2023/08/15 07:02:27;;;;;;;19.38;7.93;;;19.60;99.90;;;;;;4877502;29;20197;-65
2023/08/15 07:04:53;;;;;;;24.15;8.02;;;19.60;99.90;;;;;;4879063;29;20204;-64
2023/08/15 07:07:19;;;;;;;15.00;7.95;;;19.70;99.90;;;;;;4894666;29;20189;-64
2023/08/15 07:09:46;;;;;;;15.77;8.52;;;19.70;99.90;;;;;;4896300;29;20563;-64
2023/08/15 07:12:12;;;;;;;16.48;7.80;;;19.80;99.90;;;;;;4893536;29;20280;-64
2023/08/15 07:14:38;;;;;;;17.20;7.95;;;19.90;99.90;;;;;;4887383;29;20307;-63
2023/08/15 07:17:04;;;;;;;19.40;8.00;;;19.90;99.90;;;;;;4895029;29;20685;-63
2023/08/15 07:19:30;;;;;;;17.50;8.38;;;20.00;99.90;;;;;;4896866;29;20721;-64
2023/08/15 07:21:56;;;;;;;18.88;8.57;;;20.10;99.90;;;;;;4891459;29;20222;-68
2023/08/15 07:24:23;;;;;;;17.92;8.52;;;20.20;99.90;;;;;;4890280;29;20554;-68
2023/08/15 07:26:49;;;;;;;17.90;8.00;;;20.30;99.90;;;;;;4893075;29;20228;-69
2023/08/15 07:29:14;;;;;;;17.88;7.10;;;20.40;99.90;;;;;;4874425;29;20215;-70
2023/08/15 07:31:41;;;;;;;19.40;7.50;;;20.40;99.90;;;;;;4895227;29;20200;-68
2023/08/15 07:34:07;;;;;;;17.23;7.30;;;20.50;99.90;;;;;;4888667;29;20307;-68
2023/08/15 07:36:33;;;;;;;19.35;6.22;;;20.60;99.90;;;;;;4863869;29;20192;-67
2023/08/15 07:38:59;;;;;;;18.90;6.10;;;20.70;99.90;;;;;;4882761;29;20261;-67
2023/08/15 07:41:24;;;;;;;13.98;6.20;;;20.80;99.90;;;;;;4886149;29;20196;-68
2023/08/15 07:43:50;;;;;;;13.43;5.25;;;20.90;99.90;;;;;;4895905;29;20195;-68
2023/08/15 07:46:16;;;;;;;14.45;5.38;;;21.00;99.90;;;;;;4892263;29;20193;-70
2023/08/15 07:48:43;;;;;;;13.07;4.90;;;21.00;99.90;;;;;;4878902;29;20201;-68
2023/08/15 07:51:09;;;;;;;15.57;5.30;;;21.10;99.90;;;;;;4866410;29;20197;-72
2023/08/15 07:53:34;;;;;;;17.23;5.43;;;21.20;99.90;;;;;;4896036;29;20244;-69
2023/08/15 07:56:00;;;;;;;14.18;5.00;;;21.20;99.90;;;;;;4894383;29;20715;-69
2023/08/15 07:58:26;;;;;;;11.52;5.10;;;21.30;99.90;;;;;;4881676;29;20188;-68
2023/08/15 08:00:52;;;;;;;15.52;4.57;;;21.30;99.90;;;;;;4895732;29;20199;-69
2023/08/15 08:03:18;;;;;;;14.88;4.60;;;21.40;99.90;;;;;;4910632;29;20632;-69
2023/08/15 08:05:45;;;;;;;13.55;4.20;;;21.50;99.90;;;;;;4888673;29;20197;-68
2023/08/15 08:08:12;;;;;;;11.57;3.85;;;21.60;99.90;;;;;;4883456;29;20668;-69
2023/08/15 08:10:38;;;;;;;11.82;3.47;;;21.80;99.90;;;;;;4888852;29;20200;-70
2023/08/15 08:13:06;;;;;;;11.05;3.60;;;21.90;99.90;;;;;;4895623;29;20221;-67
2023/08/15 08:15:33;;;;;;;10.25;3.55;;;21.90;99.90;;;;;;4884200;29;20228;-71
2023/08/15 08:17:59;;;;;;;11.45;3.22;;;21.90;99.90;;;;;;4877788;29;20193;-71
2023/08/15 08:20:26;;;;;;;8.80;2.88;;;22.00;99.90;;;;;;4877923;29;20239;-68
2023/08/15 08:22:52;;;;;;;8.60;2.40;;;22.10;99.90;;;;;;4906923;29;20195;-69
2023/08/15 08:25:22;;;;;;;8.43;2.85;;;22.30;99.90;;;;;;4889838;29;20204;-72
2023/08/15 08:27:48;;;;;;;10.65;2.65;;;22.40;99.90;;;;;;4885607;29;20269;-71
2023/08/15 08:30:19;;;;;;;9.68;2.30;;;22.50;99.90;;;;;;4896024;29;20204;-69
2023/08/15 08:32:46;;;;;;;9.85;2.58;;;22.60;99.90;;;;;;4890695;29;20271;-71
2023/08/15 08:35:16;;;;;;;8.95;2.70;;;22.80;99.90;;;;;;4886174;29;20762;-73
2023/08/15 08:37:43;;;;;;;10.05;2.90;;;22.90;99.90;;;;;;4887766;29;20193;-73
2023/08/15 08:40:11;;;;;;;10.82;2.88;;;23.10;99.90;;;;;;4887800;29;20177;-73
2023/08/15 08:42:37;;;;;;;7.25;2.58;;;23.20;99.90;;;;;;4893322;29;20180;-70
2023/08/15 08:45:05;;;;;;;5.13;2.13;;;23.30;99.90;;;;;;4882483;29;20296;-71
2023/08/15 08:47:33;;;;;;;7.15;2.28;;;23.30;99.90;;;;;;4887488;29;20185;-71
2023/08/15 08:50:00;;;;;;;10.90;2.30;;;23.30;99.90;;;;;;4888381;29;20276;-68
2023/08/15 08:52:31;;;;;;;11.13;2.22;;;23.20;99.90;;;;;;4875283;29;20193;-72
2023/08/15 08:54:57;;;;;;;7.13;2.30;;;23.30;99.90;;;;;;4894693;29;20220;-70
2023/08/15 08:57:26;;;;;;;6.93;2.42;;;23.30;99.90;;;;;;4891487;29;20984;-75
2023/08/15 08:59:55;;;;;;;7.75;2.17;;;23.30;99.90;;;;;;4886185;29;20299;-70
2023/08/15 09:02:22;;;;;;;10.07;2.47;;;23.30;99.90;;;;;;4895344;29;20192;-71
2023/08/15 09:04:49;;;;;;;7.80;2.55;;;23.40;99.90;;;;;;4892323;29;20200;-71
2023/08/15 09:07:16;;;;;;;11.25;2.60;;;23.50;99.90;;;;;;4894773;29;20217;-70
2023/08/15 09:09:42;;;;;;;9.38;3.30;;;23.50;99.90;;;;;;4884374;29;20311;-71
2023/08/15 09:12:08;;;;;;;6.15;2.20;;;23.40;99.90;;;;;;4895110;29;20717;-73
2023/08/15 09:14:40;;;;;;;9.82;2.42;;;23.40;99.90;;;;;;4911438;29;20561;-71
2023/08/15 09:17:06;;;;;;;5.65;2.53;;;23.40;99.90;;;;;;4905807;29;20189;-71
2023/08/15 09:19:39;;;;;;;8.88;3.75;;;23.30;99.90;;;;;;4890931;29;20249;-71
2023/08/15 09:22:05;;;;;;;6.75;2.10;;;23.40;99.90;;;;;;4904003;29;20191;-71
2023/08/15 09:24:31;;;;;;;8.82;2.40;;;23.40;99.90;;;;;;4888850;29;20220;-70
2023/08/15 09:27:05;;;;;;;6.65;2.20;;;23.40;99.90;;;;;;4890763;29;20330;-70
2023/08/15 09:29:34;;;;;;;8.38;2.60;;;23.40;99.90;;;;;;4910524;29;20188;-70
2023/08/15 09:32:00;;;;;;;9.77;2.55;;;23.40;99.90;;;;;;4890378;29;20232;-76
2023/08/15 09:34:26;;;;;;;11.50;2.50;;;23.30;99.90;;;;;;4885862;29;20299;-67
2023/08/15 09:36:52;;;;;;;6.32;2.60;;;23.20;99.90;;;;;;4882128;29;20201;-65
2023/08/15 09:39:19;;;;;;;8.50;2.72;;;23.00;99.90;;;;;;4895822;29;20239;-71
2023/08/15 09:41:48;;;;;;;10.75;3.10;;;23.00;99.90;;;;;;4891691;29;20197;-71
2023/08/15 09:44:33;;;;;;;6.15;2.50;;;22.90;99.90;;;;;;4911142;29;20191;-68
2023/08/15 09:47:03;;;;;;;10.18;2.92;;;22.90;99.90;;;;;;4872910;29;20185;-71
2023/08/15 09:49:29;;;;;;;10.07;2.55;;;23.00;99.90;;;;;;4894816;29;20673;-69
2023/08/15 09:52:02;;;;;;;5.90;2.35;;;23.00;99.90;;;;;;4885546;29;20204;-71
2023/08/15 09:54:30;;;;;;;10.93;2.63;;;23.00;99.90;;;;;;4885090;29;20213;-71
2023/08/15 09:56:57;;;;;;;7.55;2.08;;;22.90;99.90;;;;;;4893312;29;20271;-71
2023/08/15 09:59:23;;;;;;;11.02;3.13;;;23.00;99.90;;;;;;4875973;29;20259;-73
2023/08/15 10:01:52;;;;;;;5.25;2.22;;;23.00;99.90;;;;;;4892554;29;20244;-72
2023/08/15 10:04:22;;;;;;;5.90;2.30;;;23.10;99.90;;;;;;4893166;29;20657;-71
2023/08/15 10:06:51;;;;;;;10.82;2.38;;;23.10;99.90;;;;;;4889098;29;20189;-71
2023/08/15 10:09:17;;;;;;;8.82;2.08;;;23.20;99.90;;;;;;4880756;29;20195;-71
2023/08/15 10:11:45;;;;;;;6.80;2.15;;;23.30;99.90;;;;;;4897023;29;20212;-71
2023/08/15 10:14:16;;;;;;;8.20;2.22;;;23.30;99.90;;;;;;4893446;29;20232;-71
2023/08/15 10:16:42;;;;;;;5.97;2.13;;;23.30;99.90;;;;;;4890901;29;20192;-72
2023/08/15 10:19:15;;;;;;;6.50;1.92;;;23.40;99.90;;;;;;4896134;29;20203;-72
2023/08/15 10:21:51;;;;;;;7.60;2.35;;;23.40;99.90;;;;;;4898141;29;20187;-72
2023/08/15 10:24:18;;;;;;;5.78;2.20;;;23.50;99.90;;;;;;4896885;29;20211;-72
2023/08/15 10:26:45;;;;;;;5.90;2.05;;;23.60;99.90;;;;;;4894763;29;20220;-72
2023/08/15 10:29:12;;;;;;;5.55;2.00;;;23.70;99.90;;;;;;4895553;29;20212;-72
2023/08/15 10:31:39;;;;;;;4.25;1.80;;;23.70;99.90;;;;;;4897170;29;20220;-70
2023/08/15 10:34:09;;;;;;;3.75;1.60;;;23.70;99.90;;;;;;4872577;29;20211;-71
2023/08/15 10:36:39;;;;;;;10.07;2.15;;;23.80;99.90;;;;;;4903466;29;20656;-71
2023/08/15 10:39:06;;;;;;;8.82;1.70;;;23.80;99.90;;;;;;4896170;29;20220;-73
2023/08/15 10:41:38;;;;;;;7.95;2.10;;;23.70;99.90;;;;;;4895515;29;20192;-71
2023/08/15 10:44:07;;;;;;;4.30;1.60;;;23.70;99.90;;;;;;4894668;29;20185;-71
2023/08/15 10:46:35;;;;;;;4.82;1.65;;;23.70;99.90;;;;;;4883012;29;20189;-73
2023/08/15 10:49:09;;;;;;;5.32;1.58;;;23.70;99.90;;;;;;4892689;29;20208;-71
2023/08/15 10:51:37;;;;;;;4.07;1.52;;;23.70;99.90;;;;;;4880141;29;20721;-70
2023/08/15 10:54:06;;;;;;;4.82;1.73;;;23.70;99.90;;;;;;4909786;29;20201;-71
2023/08/15 10:56:40;;;;;;;6.00;1.50;;;23.70;99.90;;;;;;4886981;29;20257;-71
2023/08/15 10:59:14;;;;;;;4.38;1.60;;;23.80;99.90;;;;;;4896743;29;20200;-70
2023/08/15 11:01:42;;;;;;;6.43;1.60;;;23.90;99.90;;;;;;4895743;29;20193;-71
2023/08/15 11:04:12;;;;;;;7.30;1.92;;;23.90;99.90;;;;;;4895180;29;20200;-71
2023/08/15 11:06:56;;;;;;;6.30;1.73;;;24.00;99.90;;;;;;4884916;29;20216;-69
2023/08/15 11:09:29;;;;;;;8.68;2.20;;;24.00;99.90;;;;;;4887733;29;20200;-69
2023/08/15 11:12:05;;;;;;;7.97;2.30;;;23.90;99.90;;;;;;4895060;29;20240;-70
2023/08/15 11:14:33;;;;;;;6.30;2.00;;;24.00;99.90;;;;;;4895708;29;20272;-72
2023/08/15 11:17:00;;;;;;;6.75;2.00;;;24.00;99.90;;;;;;4908229;29;20283;-71
2023/08/15 11:19:25;;;;;;;6.15;1.88;;;24.10;99.90;;;;;;4895032;29;20675;-70
2023/08/15 11:21:51;;;;;;;4.32;1.98;;;24.20;99.90;;;;;;4895170;29;20279;-70
2023/08/15 11:24:17;;;;;;;5.25;2.10;;;24.30;99.90;;;;;;4895893;29;20193;-71
2023/08/15 11:26:44;;;;;;;9.38;2.05;;;24.40;99.90;;;;;;4891978;29;20332;-70
2023/08/15 11:29:12;;;;;;;5.30;1.80;;;24.40;99.90;;;;;;4902230;29;20679;-71
2023/08/15 11:31:38;;;;;;;4.63;1.80;;;24.40;99.90;;;;;;4893596;29;20244;-70
2023/08/15 11:34:05;;;;;;;10.40;2.20;;;24.60;99.90;;;;;;4886057;29;20742;-71
2023/08/15 11:36:31;;;;;;;7.00;2.05;;;24.70;99.90;;;;;;4894852;29;20188;-70
2023/08/15 11:39:00;;;;;;;8.07;2.20;;;24.90;99.90;;;;;;4886208;29;20725;-71
2023/08/15 11:41:26;;;;;;;7.32;2.03;;;25.00;99.90;;;;;;4901322;29;20268;-71
2023/08/15 11:43:52;;;;;;;9.63;2.13;;;25.10;99.90;;;;;;4894744;29;20209;-69
2023/08/15 11:46:18;;;;;;;5.03;1.95;;;25.20;99.90;;;;;;4895198;29;20196;-71
2023/08/15 11:48:45;;;;;;;6.43;1.80;;;25.30;99.90;;;;;;4891837;29;20213;-71
2023/08/15 11:51:11;;;;;;;5.68;2.30;;;25.40;99.90;;;;;;4886834;29;20188;-71
2023/08/15 11:53:36;;;;;;;6.88;2.40;;;25.60;99.90;;;;;;4888189;29;20701;-71
2023/08/15 11:56:02;;;;;;;6.05;2.10;;;25.60;99.90;;;;;;4896158;29;20241;-68
2023/08/15 11:58:30;;;;;;;5.60;1.92;;;25.60;99.90;;;;;;4894159;29;20223;-70
2023/08/15 12:01:07;;;;;;;5.05;1.92;;;25.70;99.90;;;;;;4883284;29;20192;-69
2023/08/15 12:03:34;;;;;;;6.03;2.20;;;25.80;99.90;;;;;;4895314;29;20188;-69
2023/08/15 12:06:05;;;;;;;5.57;2.10;;;25.80;99.90;;;;;;4893293;29;20184;-69
2023/08/15 12:08:31;;;;;;;5.43;2.20;;;25.70;99.90;;;;;;4892899;29;20203;-69
2023/08/15 12:10:59;;;;;;;4.90;2.22;;;25.70;99.90;;;;;;4884846;29;20670;-69
2023/08/15 12:13:41;;;;;;;6.97;1.90;;;25.70;99.90;;;;;;4894710;29;20215;-69
2023/08/15 12:16:09;;;;;;;7.30;2.10;;;25.70;99.90;;;;;;4893115;29;20311;-68
2023/08/15 12:18:36;;;;;;;6.25;2.15;;;25.70;99.90;;;;;;4894654;29;20192;-68
2023/08/15 12:21:07;;;;;;;6.35;1.83;;;25.80;99.90;;;;;;4878570;29;20674;-68
2023/08/15 12:23:33;;;;;;;10.02;2.22;;;25.80;99.90;;;;;;4895016;29;20666;-69
2023/08/15 12:25:59;;;;;;;6.47;2.38;;;25.80;99.90;;;;;;4894465;29;20189;-68
2023/08/15 12:28:25;;;;;;;6.15;2.08;;;25.80;99.90;;;;;;4894885;29;20271;-66
2023/08/15 12:30:51;;;;;;;8.35;2.63;;;25.80;99.90;;;;;;4888411;29;20276;-67
2023/08/15 12:33:17;;;;;;;7.03;2.13;;;25.80;99.90;;;;;;4912550;29;20184;-68
2023/08/15 12:35:44;;;;;;;7.43;1.95;;;25.80;99.90;;;;;;4894510;29;20737;-66